DW9615 Home Hill AU current weather conditions

sailwx.info

Wind from 155

Air temperature 15.0° C
Dewpoint 13.7° C

Last reported at 2017-Jun-26 16:40 UTC.
Time now 2017-Jun-26 17:20 UTC

Location: S 19°40' E 147°25'.
View on Google Maps.

See reports from other nearby stations

  
Tides and Currents Weather Stations Pressure Air Temp Water Temp Dewpoint Dewpoint Depression Visibility Wind Speed Wind Dir Waves Ship Positions
date/time (UTC)wind fromknots sea level pressurealtimeterstation pressurevisibilityair tempwater tempwave heightnotes
2017-Jun-26 16:40 155 15.0
2017-Jun-26 16:25 165 15.0
2017-Jun-26 16:10 129 15.0
2017-Jun-26 15:55 127 15.0
2017-Jun-26 15:40 127 15.0
2017-Jun-26 15:25 127 15.6
2017-Jun-26 15:10 127 15.6
2017-Jun-26 14:55 127 16.1
2017-Jun-26 14:40 127 16.1
2017-Jun-26 14:25 094 16.1
2017-Jun-26 14:10 094 15.6
2017-Jun-26 13:55 092 16.1
2017-Jun-26 13:40 092 16.1
2017-Jun-26 13:25 092 16.1
2017-Jun-26 13:10 091 16.1
2017-Jun-26 12:55 091 16.7
2017-Jun-26 12:40 091 16.7
2017-Jun-26 12:25 091 17.2
2017-Jun-26 12:10 091 17.2
2017-Jun-26 11:55 091 17.2
2017-Jun-26 11:40 089 17.2
2017-Jun-26 11:25 089 17.2
2017-Jun-26 11:10 089 17.2
2017-Jun-26 10:55 087 17.2
2017-Jun-26 10:40 084 17.8
2017-Jun-26 10:25 084 18.3
2017-Jun-26 10:10 083 18.3
2017-Jun-26 09:55 079 18.9
2017-Jun-26 09:40 079 0 gusting 5 19.4
2017-Jun-26 09:24 067 1 gusting 6 20.0
2017-Jun-26 09:10 049 2 gusting 6 20.0
2017-Jun-26 08:55 069 1 gusting 6 20.6
2017-Jun-26 08:40 067 1 gusting 6 20.6
2017-Jun-26 08:24 054 1 gusting 6 20.6
2017-Jun-26 08:09 069 1 gusting 6 21.1
2017-Jun-26 07:54 051 2 gusting 7 21.1
2017-Jun-26 07:39 059 1 gusting 6 21.7
2017-Jun-26 07:25 075 1 gusting 6 22.2
2017-Jun-26 07:10 045 3 gusting 9 22.8
2017-Jun-26 06:54 065 1 gusting 5 23.9
2017-Jun-26 06:39 073 2 gusting 6 23.9
2017-Jun-26 06:25 089 2 gusting 6 24.4
2017-Jun-26 06:09 060 3 gusting 7 25.0
2017-Jun-26 05:54 062 3 gusting 8 25.0
2017-Jun-26 05:39 049 4 gusting 8 25.0
2017-Jun-26 05:24 050 6 gusting 9 25.0
2017-Jun-26 05:09 097 2 gusting 7 25.0
2017-Jun-26 04:54 061 4 gusting 9 25.0
2017-Jun-26 04:39 045 5 gusting 10 25.6
2017-Jun-26 04:24 125 3 gusting 6 25.6
2017-Jun-26 04:09 128 2 gusting 6 25.6
2017-Jun-26 03:54 094 4 gusting 8 25.6
2017-Jun-26 03:39 087 2 gusting 7 25.6
2017-Jun-26 03:24 089 3 gusting 8 25.6
2017-Jun-26 03:09 071 5 gusting 9 25.0
2017-Jun-26 02:54 046 3 gusting 9 25.6
2017-Jun-26 02:39 094 3 gusting 9 25.0
2017-Jun-26 02:24 089 4 gusting 10 25.0
2017-Jun-26 02:09 139 4 gusting 8 25.0
2017-Jun-26 01:54 139 3 gusting 8 25.0
2017-Jun-26 01:39 105 3 gusting 12 25.0
2017-Jun-26 01:24 100 3 gusting 8 24.4
2017-Jun-26 01:09 092 1 gusting 7 24.4
2017-Jun-26 00:54 110 2 gusting 6 23.9
2017-Jun-26 00:39 095 3 gusting 8 23.3
2017-Jun-26 00:24 075 3 gusting 7 23.3
2017-Jun-26 00:08 143 2 gusting 7 22.8
2017-Jun-25 23:53 106 2 gusting 9 22.2
2017-Jun-25 23:38 140 3 gusting 7 21.7
2017-Jun-25 23:23 122 3 gusting 7 21.1
2017-Jun-25 23:08 123 1 gusting 4 20.0
2017-Jun-25 22:53 129 0 gusting 3 18.9
2017-Jun-25 22:38 120 1 gusting 3 18.3
2017-Jun-25 22:23 069 0 gusting 2 17.2
2017-Jun-25 22:08 064 15.6
2017-Jun-25 21:53 063 14.4
2017-Jun-25 21:38 067 13.9
2017-Jun-25 21:23 066 12.8
2017-Jun-25 21:08 076 12.2
2017-Jun-25 20:53 076 12.2
2017-Jun-25 20:38 076 12.2
2017-Jun-25 20:23 075 12.8
2017-Jun-25 20:08 075 12.8
2017-Jun-25 19:53 075 12.8
2017-Jun-25 19:38 075 13.3
2017-Jun-25 19:23 075 13.3
2017-Jun-25 19:08 075 13.3
2017-Jun-25 18:52 076 13.3
2017-Jun-25 18:37 076 13.3
2017-Jun-25 18:23 076 13.3
2017-Jun-25 18:07 075 13.3
2017-Jun-25 17:52 075 13.3
2017-Jun-25 17:37 075 13.9
2017-Jun-25 17:23 075 13.9
2017-Jun-25 17:07 075 13.9
2017-Jun-25 16:52 075 13.9
2017-Jun-25 16:37 074 13.9
2017-Jun-25 16:22 074 13.9
2017-Jun-25 16:07 074 13.9
2017-Jun-25 15:52 073 13.9
2017-Jun-25 15:37 073 13.9
2017-Jun-25 15:22 073 13.9
2017-Jun-25 15:07 073 13.9
2017-Jun-25 14:52 072 14.4
2017-Jun-25 14:37 072 14.4
2017-Jun-25 14:22 073 14.4
2017-Jun-25 14:07 073 14.4
2017-Jun-25 13:52 073 14.4
2017-Jun-25 13:37 073 15.0
2017-Jun-25 13:22 073 15.0
2017-Jun-25 13:07 073 15.6
2017-Jun-25 12:52 073 16.1
2017-Jun-25 12:37 073 16.1
2017-Jun-25 12:22 073 16.7
2017-Jun-25 12:07 073 16.7
2017-Jun-25 11:52 072 16.7
2017-Jun-25 11:37 071 16.7
2017-Jun-25 11:22 071 16.7
2017-Jun-25 11:07 071 16.7
2017-Jun-25 10:52 071 17.2
2017-Jun-25 10:37 071 17.2
2017-Jun-25 10:22 071 17.2
2017-Jun-25 10:07 071 17.8
2017-Jun-25 09:52 071 17.8
2017-Jun-25 09:37 071 18.3
2017-Jun-25 09:22 070 18.9
2017-Jun-25 09:07 069 19.4
2017-Jun-25 08:52 068 0 gusting 2 20.0
2017-Jun-25 08:37 067 20.0
2017-Jun-25 08:22 066 20.6
2017-Jun-25 08:07 067 0 gusting 3 20.6
2017-Jun-25 07:51 068 1 gusting 6 21.1
2017-Jun-25 07:36 087 1 gusting 5 21.7
2017-Jun-25 07:21 060 0 gusting 6 22.2
2017-Jun-25 07:06 044 2 gusting 5 22.8
2017-Jun-25 06:52 055 2 gusting 6 22.8
2017-Jun-25 06:36 080 2 gusting 6 23.3
2017-Jun-25 06:21 064 3 gusting 7 23.3
2017-Jun-25 06:06 064 1 gusting 7 23.9
2017-Jun-25 05:51 044 3 gusting 7 23.9
2017-Jun-25 05:36 043 4 gusting 8 23.9
2017-Jun-25 05:21 056 2 gusting 6 23.9
2017-Jun-25 05:06 078 3 gusting 7 24.4
2017-Jun-25 04:51 054 3 gusting 7 24.4
2017-Jun-25 04:36 050 4 gusting 7 24.4
2017-Jun-25 04:21 087 2 gusting 6 25.0
2017-Jun-25 04:06 123 0 gusting 5 25.0
2017-Jun-25 03:51 055 1 gusting 6 24.4
2017-Jun-25 03:36 081 0 gusting 6 24.4
2017-Jun-25 03:21 040 1 gusting 6 24.4
2017-Jun-25 03:06 071 3 gusting 8 24.4
2017-Jun-25 02:51 077 3 gusting 6 23.9
2017-Jun-25 02:36 052 2 gusting 9 24.4
2017-Jun-25 02:21 135 1 gusting 7 24.4
2017-Jun-25 02:06 136 1 gusting 6 23.9
2017-Jun-25 01:51 070 3 gusting 8 23.9
2017-Jun-25 01:36 044 0 gusting 6 23.9
2017-Jun-25 01:21 100 0 gusting 5 23.9
2017-Jun-25 01:06 110 1 gusting 6 23.3
2017-Jun-25 00:51 151 0 gusting 6 23.3
2017-Jun-25 00:36 144 2 gusting 5 23.3
2017-Jun-25 00:21 120 1 gusting 4 22.8
2017-Jun-25 00:06 156 2 gusting 4 22.8
2017-Jun-24 23:51 083 0 gusting 5 22.2
2017-Jun-24 23:36 135 1 gusting 4 21.7
2017-Jun-24 23:21 146 0 gusting 4 21.1
2017-Jun-24 23:05 165 0 gusting 2 20.6
2017-Jun-24 22:50 165 1 gusting 3 20.0
2017-Jun-24 22:35 069 0 gusting 2 19.4
2017-Jun-24 22:20 036 18.9
2017-Jun-24 22:05 035 17.8
2017-Jun-24 21:50 035 17.8
2017-Jun-24 21:35 035 17.2
2017-Jun-24 21:20 035 17.2
2017-Jun-24 21:05 035 17.2
2017-Jun-24 20:50 035 17.2
2017-Jun-24 20:35 035 17.2
2017-Jun-24 20:20 035 16.7
2017-Jun-24 20:05 035 16.7
2017-Jun-24 19:50 035 16.7
2017-Jun-24 19:35 035 16.7
2017-Jun-24 19:20 035 16.7
2017-Jun-24 19:05 035 16.7
2017-Jun-24 18:50 035 16.7
2017-Jun-24 18:35 035 17.2
2017-Jun-24 18:20 035 17.2
2017-Jun-24 18:05 120 17.2
2017-Jun-24 17:50 118 17.2
2017-Jun-24 17:35 118 17.2
2017-Jun-24 17:20 116 17.2
2017-Jun-24 17:05 116 0 gusting 2 17.2